San Francisco, CA (94114)

7:16 AM PDT on July 27, 2016 (GMT -0700)
Collingwood Hill/Noe Valley-Castro | | Change Station

Elev 348 ft 37.76 °N, 122.44 °W | Updated 14 seconds ago

Partly Cloudy
Partly Cloudy
57.4 °F
Feels Like 57.4 °F
N
4.0
Wind Variable Wind from NE
Gusts 4.0 mph

Today
High -- | Low -- °F
--% Chance of Precip.
Yesterday
High -- | Low -- °F
Precip. -- in
Pressure 29.90 in
Visibility 10.0 miles
Clouds Few 700 ft
Dew Point 52 °F
Humidity 84%
Rainfall 0.00 in
Snow Depth Not available.
6:09 AM 8:22 PM
Last Quarter, 43% visible
METAR KSFO 271356Z 29008KT 10SM FEW007 13/10 A2990 RMK AO2 SLP124 T01330100
Pressure 29.90 in
Visibility 10.0 miles
Clouds Few 700 ft
Dew Point 52 °F
Humidity 84%
Rainfall 0.00 in
Snow Depth Not available.
6:09 AM 8:22 PM
Last Quarter, 43% visible
METAR KSFO 271356Z 29008KT 10SM FEW007 13/10 A2990 RMK AO2 SLP124 T01330100

10-Day Weather Forecast

Almanac

Astronomy

Jul. 27, 2016 Rise Set
Actual Time
Civil Twilight
Nautical Twilight
Astronomical Twilight
Moon
Length of Visible Light
Length of Day
Tomorrow will be .
, % of the Moon is Illuminated

Today's Extremes

State Highs State Lows

Community

WunderPhotos

Upload Photos

1,927,846 photos uploaded!

WunderBlog® & News

Nearby

Air Quality

  Air Quality AQ Index Pollutant
Not available.

Snow Depth

Station Depth Elevation

Earthquake Activity

City Distance Mag. Time & Date
Minimum magnitude displayed is 2.5.

Coastal Water Temperatures

Place Temperature

Stations

Nearby Weather Stations

Station Location Temp. Windchill Dew Point Humidity Wind Precip. Elev Updated Type
                   

Watches & Warnings

There are currently no watches in effect.